sensor_id;sensor_type;location;lat;lon;timestamp;temperature;humidity
52209;DHT22;38507;53.132;6.394;2022-11-20T00:00:44;-1.00;99.90
52209;DHT22;38507;53.132;6.394;2022-11-20T00:03:09;-1.00;99.90
52209;DHT22;38507;53.132;6.394;2022-11-20T00:05:35;-1.00;99.90
52209;DHT22;38507;53.132;6.394;2022-11-20T00:08:01;-0.90;99.90
52209;DHT22;38507;53.132;6.394;2022-11-20T00:10:26;-1.10;99.90
52209;DHT22;38507;53.132;6.394;2022-11-20T00:12:52;0.20;99.90
52209;DHT22;38507;53.132;6.394;2022-11-20T00:15:17;-0.90;99.90
52209;DHT22;38507;53.132;6.394;2022-11-20T00:17:43;-1.10;99.90
52209;DHT22;38507;53.132;6.394;2022-11-20T00:20:09;-1.00;99.90
52209;DHT22;38507;53.132;6.394;2022-11-20T00:22:35;-0.90;99.90
52209;DHT22;38507;53.132;6.394;2022-11-20T00:25:00;-1.10;99.90
52209;DHT22;38507;53.132;6.394;2022-11-20T00:27:26;-0.90;99.90
52209;DHT22;38507;53.132;6.394;2022-11-20T00:29:51;-0.80;99.90
52209;DHT22;38507;53.132;6.394;2022-11-20T00:32:17;-0.80;99.90
52209;DHT22;38507;53.132;6.394;2022-11-20T00:34:42;-0.80;99.90
52209;DHT22;38507;53.132;6.394;2022-11-20T00:37:08;-0.80;99.90
52209;DHT22;38507;53.132;6.394;2022-11-20T00:39:34;-0.80;99.90
52209;DHT22;38507;53.132;6.394;2022-11-20T00:41:59;-0.80;99.90
52209;DHT22;38507;53.132;6.394;2022-11-20T00:44:25;-0.80;99.90
52209;DHT22;38507;53.132;6.394;2022-11-20T00:46:50;-0.70;99.90
52209;DHT22;38507;53.132;6.394;2022-11-20T00:49:16;-0.70;99.90
52209;DHT22;38507;53.132;6.394;2022-11-20T00:51:41;-0.70;99.90
52209;DHT22;38507;53.132;6.394;2022-11-20T00:54:07;-0.70;99.90
52209;DHT22;38507;53.132;6.394;2022-11-20T00:56:32;-0.70;99.90
52209;DHT22;38507;53.132;6.394;2022-11-20T00:58:59;-0.70;99.90
52209;DHT22;38507;53.132;6.394;2022-11-20T01:01:25;-0.70;99.90
52209;DHT22;38507;53.132;6.394;2022-11-20T01:03:52;-0.60;99.90
52209;DHT22;38507;53.132;6.394;2022-11-20T01:06:19;-0.60;99.90
52209;DHT22;38507;53.132;6.394;2022-11-20T01:08:45;-0.60;99.90
52209;DHT22;38507;53.132;6.394;2022-11-20T01:11:12;-0.60;99.90
52209;DHT22;38507;53.132;6.394;2022-11-20T01:13:38;-0.60;99.90
52209;DHT22;38507;53.132;6.394;2022-11-20T01:16:11;-0.60;99.90
52209;DHT22;38507;53.132;6.394;2022-11-20T01:18:37;-0.50;99.90
52209;DHT22;38507;53.132;6.394;2022-11-20T01:21:04;-0.50;99.90
52209;DHT22;38507;53.132;6.394;2022-11-20T01:23:34;-0.50;99.90
52209;DHT22;38507;53.132;6.394;2022-11-20T01:26:03;-0.50;99.90
52209;DHT22;38507;53.132;6.394;2022-11-20T01:28:30;-0.50;99.90
52209;DHT22;38507;53.132;6.394;2022-11-20T01:30:55;-0.50;99.90
52209;DHT22;38507;53.132;6.394;2022-11-20T01:33:21;-0.50;99.90
52209;DHT22;38507;53.132;6.394;2022-11-20T01:35:46;-0.40;99.90
52209;DHT22;38507;53.132;6.394;2022-11-20T01:38:12;-0.40;99.90
52209;DHT22;38507;53.132;6.394;2022-11-20T01:40:38;-0.50;99.90
52209;DHT22;38507;53.132;6.394;2022-11-20T01:43:19;-0.40;99.90
52209;DHT22;38507;53.132;6.394;2022-11-20T01:51:23;-0.40;99.90
52209;DHT22;38507;53.132;6.394;2022-11-20T01:53:51;-0.40;99.90
52209;DHT22;38507;53.132;6.394;2022-11-20T01:56:19;-0.40;99.90
52209;DHT22;38507;53.132;6.394;2022-11-20T01:58:47;-0.40;99.90
52209;DHT22;38507;53.132;6.394;2022-11-20T02:01:13;-0.30;99.90
52209;DHT22;38507;53.132;6.394;2022-11-20T02:03:39;-0.30;99.90
52209;DHT22;38507;53.132;6.394;2022-11-20T02:08:31;-0.40;99.90
52209;DHT22;38507;53.132;6.394;2022-11-20T02:10:57;-0.30;99.90
52209;DHT22;38507;53.132;6.394;2022-11-20T02:13:23;-0.30;99.90
52209;DHT22;38507;53.132;6.394;2022-11-20T02:18:47;-0.30;99.90
52209;DHT22;38507;53.132;6.394;2022-11-20T02:26:16;-0.30;99.90
52209;DHT22;38507;53.132;6.394;2022-11-20T02:28:43;-0.30;99.90
52209;DHT22;38507;53.132;6.394;2022-11-20T02:31:09;0.70;99.90
52209;DHT22;38507;53.132;6.394;2022-11-20T02:33:34;-0.30;99.90
52209;DHT22;38507;53.132;6.394;2022-11-20T02:36:00;-0.30;99.90
52209;DHT22;38507;53.132;6.394;2022-11-20T02:38:25;-0.20;99.90
52209;DHT22;38507;53.132;6.394;2022-11-20T02:40:51;-0.20;99.90
52209;DHT22;38507;53.132;6.394;2022-11-20T02:43:16;-0.20;99.90
52209;DHT22;38507;53.132;6.394;2022-11-20T02:45:42;-0.20;99.90
52209;DHT22;38507;53.132;6.394;2022-11-20T02:48:07;-0.20;99.90
52209;DHT22;38507;53.132;6.394;2022-11-20T02:50:33;-0.20;99.90
52209;DHT22;38507;53.132;6.394;2022-11-20T02:52:58;-0.20;99.90
52209;DHT22;38507;53.132;6.394;2022-11-20T02:55:24;-0.20;99.90
52209;DHT22;38507;53.132;6.394;2022-11-20T02:57:49;-0.20;99.90
52209;DHT22;38507;53.132;6.394;2022-11-20T03:00:15;-0.20;99.90
52209;DHT22;38507;53.132;6.394;2022-11-20T03:02:40;-0.20;99.90
52209;DHT22;38507;53.132;6.394;2022-11-20T03:05:06;-0.20;99.90
52209;DHT22;38507;53.132;6.394;2022-11-20T03:07:32;-0.20;99.90
52209;DHT22;38507;53.132;6.394;2022-11-20T03:09:57;-0.20;99.90
52209;DHT22;38507;53.132;6.394;2022-11-20T03:12:23;-0.20;99.90
52209;DHT22;38507;53.132;6.394;2022-11-20T03:14:48;-0.20;99.90
52209;DHT22;38507;53.132;6.394;2022-11-20T03:17:14;-0.10;99.90
52209;DHT22;38507;53.132;6.394;2022-11-20T03:19:39;0.50;99.90
52209;DHT22;38507;53.132;6.394;2022-11-20T03:22:05;-0.10;99.90
52209;DHT22;38507;53.132;6.394;2022-11-20T03:24:30;-0.10;99.90
52209;DHT22;38507;53.132;6.394;2022-11-20T03:26:55;-0.10;99.90
52209;DHT22;38507;53.132;6.394;2022-11-20T03:29:21;-0.10;99.90
52209;DHT22;38507;53.132;6.394;2022-11-20T03:31:47;-0.10;99.90
52209;DHT22;38507;53.132;6.394;2022-11-20T03:34:13;-0.10;99.90
52209;DHT22;38507;53.132;6.394;2022-11-20T03:36:39;-0.10;99.90
52209;DHT22;38507;53.132;6.394;2022-11-20T03:39:04;-0.10;99.90
52209;DHT22;38507;53.132;6.394;2022-11-20T03:41:30;-0.10;99.90
52209;DHT22;38507;53.132;6.394;2022-11-20T03:44:00;-0.10;99.90
52209;DHT22;38507;53.132;6.394;2022-11-20T03:46:26;-0.10;99.90
52209;DHT22;38507;53.132;6.394;2022-11-20T03:48:52;-0.10;99.90
52209;DHT22;38507;53.132;6.394;2022-11-20T03:51:18;0.50;99.90
52209;DHT22;38507;53.132;6.394;2022-11-20T03:53:45;-0.20;99.90
52209;DHT22;38507;53.132;6.394;2022-11-20T03:56:11;-0.20;99.90
52209;DHT22;38507;53.132;6.394;2022-11-20T03:58:37;-0.20;99.90
52209;DHT22;38507;53.132;6.394;2022-11-20T04:01:10;-0.10;99.90
52209;DHT22;38507;53.132;6.394;2022-11-20T04:03:36;-0.10;99.90
52209;DHT22;38507;53.132;6.394;2022-11-20T04:06:03;-0.10;99.90
52209;DHT22;38507;53.132;6.394;2022-11-20T04:08:30;-0.10;99.90
52209;DHT22;38507;53.132;6.394;2022-11-20T04:10:55;-0.10;99.90
52209;DHT22;38507;53.132;6.394;2022-11-20T04:13:21;-0.10;99.90
52209;DHT22;38507;53.132;6.394;2022-11-20T04:15:46;-0.10;99.90
52209;DHT22;38507;53.132;6.394;2022-11-20T04:18:12;-0.10;99.90
52209;DHT22;38507;53.132;6.394;2022-11-20T04:20:37;-0.10;99.90
52209;DHT22;38507;53.132;6.394;2022-11-20T04:23:03;-0.10;99.90
52209;DHT22;38507;53.132;6.394;2022-11-20T04:25:28;-0.10;99.90
52209;DHT22;38507;53.132;6.394;2022-11-20T04:27:54;-0.10;99.90
52209;DHT22;38507;53.132;6.394;2022-11-20T04:30:19;-0.10;99.90
52209;DHT22;38507;53.132;6.394;2022-11-20T04:32:45;-0.10;99.90
52209;DHT22;38507;53.132;6.394;2022-11-20T04:35:10;-0.10;99.90
52209;DHT22;38507;53.132;6.394;2022-11-20T04:37:36;0.00;99.90
52209;DHT22;38507;53.132;6.394;2022-11-20T04:40:01;0.00;99.90
52209;DHT22;38507;53.132;6.394;2022-11-20T04:42:27;0.00;99.90
52209;DHT22;38507;53.132;6.394;2022-11-20T04:44:56;0.00;99.90
52209;DHT22;38507;53.132;6.394;2022-11-20T04:47:21;0.10;99.90
52209;DHT22;38507;53.132;6.394;2022-11-20T04:49:47;0.10;99.90
52209;DHT22;38507;53.132;6.394;2022-11-20T04:52:13;0.00;99.90
52209;DHT22;38507;53.132;6.394;2022-11-20T04:54:39;0.00;99.90
52209;DHT22;38507;53.132;6.394;2022-11-20T04:57:04;0.00;99.90
52209;DHT22;38507;53.132;6.394;2022-11-20T04:59:30;0.10;99.90
52209;DHT22;38507;53.132;6.394;2022-11-20T05:01:55;0.00;99.90
52209;DHT22;38507;53.132;6.394;2022-11-20T05:04:21;0.10;99.90
52209;DHT22;38507;53.132;6.394;2022-11-20T05:06:46;0.80;99.90
52209;DHT22;38507;53.132;6.394;2022-11-20T05:09:12;0.10;99.90
52209;DHT22;38507;53.132;6.394;2022-11-20T05:11:38;0.10;99.90
52209;DHT22;38507;53.132;6.394;2022-11-20T05:14:03;0.70;99.90
52209;DHT22;38507;53.132;6.394;2022-11-20T05:16:29;0.10;99.90
52209;DHT22;38507;53.132;6.394;2022-11-20T05:18:55;0.20;99.90
52209;DHT22;38507;53.132;6.394;2022-11-20T05:21:20;0.20;99.90
52209;DHT22;38507;53.132;6.394;2022-11-20T05:23:46;0.20;99.90
52209;DHT22;38507;53.132;6.394;2022-11-20T05:26:16;0.20;99.90
52209;DHT22;38507;53.132;6.394;2022-11-20T05:28:41;0.20;99.90
52209;DHT22;38507;53.132;6.394;2022-11-20T05:31:08;0.20;99.90
52209;DHT22;38507;53.132;6.394;2022-11-20T05:33:34;0.20;99.90
52209;DHT22;38507;53.132;6.394;2022-11-20T05:36:00;0.20;99.90
52209;DHT22;38507;53.132;6.394;2022-11-20T05:38:25;0.20;99.90
52209;DHT22;38507;53.132;6.394;2022-11-20T05:40:51;0.20;99.90
52209;DHT22;38507;53.132;6.394;2022-11-20T05:43:17;0.20;99.90
52209;DHT22;38507;53.132;6.394;2022-11-20T05:45:42;0.20;99.90
52209;DHT22;38507;53.132;6.394;2022-11-20T05:48:08;0.20;99.90
52209;DHT22;38507;53.132;6.394;2022-11-20T05:50:33;0.20;99.90
52209;DHT22;38507;53.132;6.394;2022-11-20T05:52:59;1.00;99.90
52209;DHT22;38507;53.132;6.394;2022-11-20T05:55:26;0.20;99.90
52209;DHT22;38507;53.132;6.394;2022-11-20T05:57:52;0.30;99.90
52209;DHT22;38507;53.132;6.394;2022-11-20T06:00:18;0.30;99.90
52209;DHT22;38507;53.132;6.394;2022-11-20T06:02:43;0.30;99.90
52209;DHT22;38507;53.132;6.394;2022-11-20T06:05:09;0.20;99.90
52209;DHT22;38507;53.132;6.394;2022-11-20T06:07:34;0.20;99.90
52209;DHT22;38507;53.132;6.394;2022-11-20T06:10:00;0.30;99.90
52209;DHT22;38507;53.132;6.394;2022-11-20T06:12:25;0.20;99.90
52209;DHT22;38507;53.132;6.394;2022-11-20T06:14:51;0.70;99.90
52209;DHT22;38507;53.132;6.394;2022-11-20T06:17:17;0.40;99.90
52209;DHT22;38507;53.132;6.394;2022-11-20T06:19:42;0.30;99.90
52209;DHT22;38507;53.132;6.394;2022-11-20T06:22:08;0.30;99.90
52209;DHT22;38507;53.132;6.394;2022-11-20T06:24:33;0.30;99.90
52209;DHT22;38507;53.132;6.394;2022-11-20T06:26:59;0.30;99.90
52209;DHT22;38507;53.132;6.394;2022-11-20T06:29:24;0.30;99.90
52209;DHT22;38507;53.132;6.394;2022-11-20T06:31:50;0.30;99.90
52209;DHT22;38507;53.132;6.394;2022-11-20T06:34:15;0.30;99.90
52209;DHT22;38507;53.132;6.394;2022-11-20T06:36:41;0.30;99.90
52209;DHT22;38507;53.132;6.394;2022-11-20T06:39:07;0.30;99.90
52209;DHT22;38507;53.132;6.394;2022-11-20T06:41:32;0.30;99.90
52209;DHT22;38507;53.132;6.394;2022-11-20T06:43:58;0.60;99.90
52209;DHT22;38507;53.132;6.394;2022-11-20T06:46:23;0.30;99.90
52209;DHT22;38507;53.132;6.394;2022-11-20T06:48:49;0.30;99.90
52209;DHT22;38507;53.132;6.394;2022-11-20T06:51:15;0.30;99.90
52209;DHT22;38507;53.132;6.394;2022-11-20T06:53:40;0.30;99.90
52209;DHT22;38507;53.132;6.394;2022-11-20T06:56:06;0.30;99.90
52209;DHT22;38507;53.132;6.394;2022-11-20T06:58:32;0.30;99.90
52209;DHT22;38507;53.132;6.394;2022-11-20T07:00:59;0.30;99.90
52209;DHT22;38507;53.132;6.394;2022-11-20T07:03:24;0.30;99.90
52209;DHT22;38507;53.132;6.394;2022-11-20T07:05:50;0.30;99.90
52209;DHT22;38507;53.132;6.394;2022-11-20T07:08:16;0.30;99.90
52209;DHT22;38507;53.132;6.394;2022-11-20T07:10:41;0.30;99.90
52209;DHT22;38507;53.132;6.394;2022-11-20T07:13:07;0.30;99.90
52209;DHT22;38507;53.132;6.394;2022-11-20T07:15:32;0.30;99.90
52209;DHT22;38507;53.132;6.394;2022-11-20T07:17:58;0.30;99.90
52209;DHT22;38507;53.132;6.394;2022-11-20T07:20:24;0.50;99.90
52209;DHT22;38507;53.132;6.394;2022-11-20T07:22:56;0.30;99.90
52209;DHT22;38507;53.132;6.394;2022-11-20T07:25:23;0.20;99.90
52209;DHT22;38507;53.132;6.394;2022-11-20T07:27:48;0.20;99.90
52209;DHT22;38507;53.132;6.394;2022-11-20T07:30:14;0.60;99.90
52209;DHT22;38507;53.132;6.394;2022-11-20T07:32:40;0.30;99.90
52209;DHT22;38507;53.132;6.394;2022-11-20T07:35:06;0.20;99.90
52209;DHT22;38507;53.132;6.394;2022-11-20T07:37:34;0.30;99.90
52209;DHT22;38507;53.132;6.394;2022-11-20T07:39:59;0.20;99.90
52209;DHT22;38507;53.132;6.394;2022-11-20T07:42:25;0.20;99.90
52209;DHT22;38507;53.132;6.394;2022-11-20T07:44:50;0.20;99.90
52209;DHT22;38507;53.132;6.394;2022-11-20T07:47:19;0.30;99.90
52209;DHT22;38507;53.132;6.394;2022-11-20T07:49:48;0.30;99.90
52209;DHT22;38507;53.132;6.394;2022-11-20T07:52:13;0.30;99.90
52209;DHT22;38507;53.132;6.394;2022-11-20T07:54:39;0.30;99.90
52209;DHT22;38507;53.132;6.394;2022-11-20T07:57:04;0.30;99.90
52209;DHT22;38507;53.132;6.394;2022-11-20T07:59:30;0.30;99.90
52209;DHT22;38507;53.132;6.394;2022-11-20T08:01:55;0.30;99.90
52209;DHT22;38507;53.132;6.394;2022-11-20T08:04:21;0.30;99.90
52209;DHT22;38507;53.132;6.394;2022-11-20T08:06:47;0.30;99.90
52209;DHT22;38507;53.132;6.394;2022-11-20T08:09:12;0.30;99.90
52209;DHT22;38507;53.132;6.394;2022-11-20T08:11:38;0.30;99.90
52209;DHT22;38507;53.132;6.394;2022-11-20T08:14:22;1.60;99.90
52209;DHT22;38507;53.132;6.394;2022-11-20T08:16:48;0.30;99.90
52209;DHT22;38507;53.132;6.394;2022-11-20T08:19:14;0.20;99.90
52209;DHT22;38507;53.132;6.394;2022-11-20T08:21:40;0.20;99.90
52209;DHT22;38507;53.132;6.394;2022-11-20T08:24:06;0.20;99.90
52209;DHT22;38507;53.132;6.394;2022-11-20T08:26:32;0.20;99.90
52209;DHT22;38507;53.132;6.394;2022-11-20T08:28:58;0.20;99.90
52209;DHT22;38507;53.132;6.394;2022-11-20T08:31:24;0.20;99.90
52209;DHT22;38507;53.132;6.394;2022-11-20T08:33:50;0.20;99.90
52209;DHT22;38507;53.132;6.394;2022-11-20T08:36:16;0.30;99.90
52209;DHT22;38507;53.132;6.394;2022-11-20T08:38:42;0.30;99.90
52209;DHT22;38507;53.132;6.394;2022-11-20T08:41:11;0.30;99.90
52209;DHT22;38507;53.132;6.394;2022-11-20T08:43:49;0.30;99.90
52209;DHT22;38507;53.132;6.394;2022-11-20T08:46:18;0.30;99.90
52209;DHT22;38507;53.132;6.394;2022-11-20T08:48:44;0.40;99.90
52209;DHT22;38507;53.132;6.394;2022-11-20T08:51:10;0.30;99.90
52209;DHT22;38507;53.132;6.394;2022-11-20T08:53:36;0.30;99.90
52209;DHT22;38507;53.132;6.394;2022-11-20T08:56:01;0.40;99.90
52209;DHT22;38507;53.132;6.394;2022-11-20T08:58:27;0.40;99.90
52209;DHT22;38507;53.132;6.394;2022-11-20T09:00:52;0.40;99.90
52209;DHT22;38507;53.132;6.394;2022-11-20T09:03:18;0.40;99.90
52209;DHT22;38507;53.132;6.394;2022-11-20T09:05:44;0.50;99.90
52209;DHT22;38507;53.132;6.394;2022-11-20T09:08:09;0.50;99.90
52209;DHT22;38507;53.132;6.394;2022-11-20T09:10:35;0.50;99.90
52209;DHT22;38507;53.132;6.394;2022-11-20T09:13:02;1.60;99.90
52209;DHT22;38507;53.132;6.394;2022-11-20T09:16:57;0.60;99.90
52209;DHT22;38507;53.132;6.394;2022-11-20T09:19:24;0.70;99.90
52209;DHT22;38507;53.132;6.394;2022-11-20T09:21:50;0.60;99.90
52209;DHT22;38507;53.132;6.394;2022-11-20T09:24:16;0.70;99.90
52209;DHT22;38507;53.132;6.394;2022-11-20T09:26:42;0.70;99.90
52209;DHT22;38507;53.132;6.394;2022-11-20T09:29:07;0.70;99.90
52209;DHT22;38507;53.132;6.394;2022-11-20T09:31:33;0.70;99.90
52209;DHT22;38507;53.132;6.394;2022-11-20T09:33:59;0.70;99.90
52209;DHT22;38507;53.132;6.394;2022-11-20T09:36:25;0.70;99.90
52209;DHT22;38507;53.132;6.394;2022-11-20T09:38:52;0.70;99.90
52209;DHT22;38507;53.132;6.394;2022-11-20T09:47:13;0.80;99.90
52209;DHT22;38507;53.132;6.394;2022-11-20T09:55:21;0.80;99.90
52209;DHT22;38507;53.132;6.394;2022-11-20T09:57:48;0.90;99.90
52209;DHT22;38507;53.132;6.394;2022-11-20T10:00:16;0.90;99.90
52209;DHT22;38507;53.132;6.394;2022-11-20T10:03:14;0.90;99.90
52209;DHT22;38507;53.132;6.394;2022-11-20T10:05:47;0.90;99.90
52209;DHT22;38507;53.132;6.394;2022-11-20T10:08:22;1.00;99.90
52209;DHT22;38507;53.132;6.394;2022-11-20T10:21:49;1.20;99.90
52209;DHT22;38507;53.132;6.394;2022-11-20T10:24:28;1.30;99.90
52209;DHT22;38507;53.132;6.394;2022-11-20T10:29:43;1.40;99.90
52209;DHT22;38507;53.132;6.394;2022-11-20T10:32:11;1.50;99.90
52209;DHT22;38507;53.132;6.394;2022-11-20T10:35:01;1.60;99.90
52209;DHT22;38507;53.132;6.394;2022-11-20T10:37:31;1.60;99.90
52209;DHT22;38507;53.132;6.394;2022-11-20T10:43:01;1.70;99.90
52209;DHT22;38507;53.132;6.394;2022-11-20T10:45:57;1.70;99.90
52209;DHT22;38507;53.132;6.394;2022-11-20T10:48:26;2.00;99.90
52209;DHT22;38507;53.132;6.394;2022-11-20T10:56:52;1.70;99.90
52209;DHT22;38507;53.132;6.394;2022-11-20T11:02:24;1.80;99.90
52209;DHT22;38507;53.132;6.394;2022-11-20T11:04:53;1.90;99.90
52209;DHT22;38507;53.132;6.394;2022-11-20T11:07:35;1.80;99.90
52209;DHT22;38507;53.132;6.394;2022-11-20T11:10:36;1.90;99.90
52209;DHT22;38507;53.132;6.394;2022-11-20T11:12:57;1.90;99.90
52209;DHT22;38507;53.132;6.394;2022-11-20T11:15:37;1.90;99.90
52209;DHT22;38507;53.132;6.394;2022-11-20T11:18:04;1.80;99.90
52209;DHT22;38507;53.132;6.394;2022-11-20T11:20:30;2.00;99.90
52209;DHT22;38507;53.132;6.394;2022-11-20T11:22:58;2.10;99.90
52209;DHT22;38507;53.132;6.394;2022-11-20T11:25:27;2.10;99.90
52209;DHT22;38507;53.132;6.394;2022-11-20T11:27:57;2.20;99.90
52209;DHT22;38507;53.132;6.394;2022-11-20T11:30:25;2.20;99.90
52209;DHT22;38507;53.132;6.394;2022-11-20T11:33:10;2.30;99.90
52209;DHT22;38507;53.132;6.394;2022-11-20T11:36:26;2.40;99.90
52209;DHT22;38507;53.132;6.394;2022-11-20T11:41:32;2.50;99.90
52209;DHT22;38507;53.132;6.394;2022-11-20T11:44:19;2.60;99.90
52209;DHT22;38507;53.132;6.394;2022-11-20T11:49:29;2.70;99.90
52209;DHT22;38507;53.132;6.394;2022-11-20T11:52:20;2.70;99.90
52209;DHT22;38507;53.132;6.394;2022-11-20T11:55:03;2.80;99.90
52209;DHT22;38507;53.132;6.394;2022-11-20T12:07:01;3.60;99.90
52209;DHT22;38507;53.132;6.394;2022-11-20T12:09:35;3.70;99.90
52209;DHT22;38507;53.132;6.394;2022-11-20T12:12:12;4.80;99.90
52209;DHT22;38507;53.132;6.394;2022-11-20T12:14:43;3.70;99.90
52209;DHT22;38507;53.132;6.394;2022-11-20T12:17:12;3.80;99.90
52209;DHT22;38507;53.132;6.394;2022-11-20T12:19:38;3.90;99.90
52209;DHT22;38507;53.132;6.394;2022-11-20T12:30:02;4.40;99.90
52209;DHT22;38507;53.132;6.394;2022-11-20T12:43:51;4.00;99.90
52209;DHT22;38507;53.132;6.394;2022-11-20T12:46:45;4.00;99.90
52209;DHT22;38507;53.132;6.394;2022-11-20T12:49:24;4.10;99.90
52209;DHT22;38507;53.132;6.394;2022-11-20T12:52:11;4.10;99.90
52209;DHT22;38507;53.132;6.394;2022-11-20T13:02:54;4.40;99.90
52209;DHT22;38507;53.132;6.394;2022-11-20T13:08:03;4.40;99.90
52209;DHT22;38507;53.132;6.394;2022-11-20T13:10:43;4.40;99.90
52209;DHT22;38507;53.132;6.394;2022-11-20T13:13:23;4.40;99.90
52209;DHT22;38507;53.132;6.394;2022-11-20T13:16:07;4.40;99.90
52209;DHT22;38507;53.132;6.394;2022-11-20T13:18:38;4.30;99.90
52209;DHT22;38507;53.132;6.394;2022-11-20T13:21:37;4.30;99.90
52209;DHT22;38507;53.132;6.394;2022-11-20T13:24:06;4.30;99.90
52209;DHT22;38507;53.132;6.394;2022-11-20T13:26:33;4.40;99.90
52209;DHT22;38507;53.132;6.394;2022-11-20T13:29:12;5.00;99.90
52209;DHT22;38507;53.132;6.394;2022-11-20T13:31:44;4.50;99.90
52209;DHT22;38507;53.132;6.394;2022-11-20T13:34:22;4.50;99.90
52209;DHT22;38507;53.132;6.394;2022-11-20T13:36:50;4.40;99.90
52209;DHT22;38507;53.132;6.394;2022-11-20T13:39:28;4.40;99.90
52209;DHT22;38507;53.132;6.394;2022-11-20T13:42:02;4.40;99.90
52209;DHT22;38507;53.132;6.394;2022-11-20T13:44:39;4.40;99.90
52209;DHT22;38507;53.132;6.394;2022-11-20T13:47:27;4.50;99.90
52209;DHT22;38507;53.132;6.394;2022-11-20T13:49:57;4.40;99.90
52209;DHT22;38507;53.132;6.394;2022-11-20T13:55:37;4.40;99.90
52209;DHT22;38507;53.132;6.394;2022-11-20T14:00:55;4.30;99.90
52209;DHT22;38507;53.132;6.394;2022-11-20T14:03:24;4.80;99.90
52209;DHT22;38507;53.132;6.394;2022-11-20T14:05:55;4.20;99.90
52209;DHT22;38507;53.132;6.394;2022-11-20T14:08:27;4.20;99.90
52209;DHT22;38507;53.132;6.394;2022-11-20T14:11:14;4.10;99.90
52209;DHT22;38507;53.132;6.394;2022-11-20T14:13:39;4.00;99.90
52209;DHT22;38507;53.132;6.394;2022-11-20T14:16:22;4.00;99.90
52209;DHT22;38507;53.132;6.394;2022-11-20T14:18:48;4.00;99.90
52209;DHT22;38507;53.132;6.394;2022-11-20T14:21:25;3.90;99.90
52209;DHT22;38507;53.132;6.394;2022-11-20T14:24:18;3.90;99.90
52209;DHT22;38507;53.132;6.394;2022-11-20T14:26:45;3.90;99.90
52209;DHT22;38507;53.132;6.394;2022-11-20T14:29:17;3.90;99.90
52209;DHT22;38507;53.132;6.394;2022-11-20T14:31:44;3.80;99.90
52209;DHT22;38507;53.132;6.394;2022-11-20T14:34:17;3.70;99.90
52209;DHT22;38507;53.132;6.394;2022-11-20T14:36:43;3.70;99.90
52209;DHT22;38507;53.132;6.394;2022-11-20T14:39:12;3.70;99.90
52209;DHT22;38507;53.132;6.394;2022-11-20T14:41:52;3.60;99.90
52209;DHT22;38507;53.132;6.394;2022-11-20T14:44:26;3.60;99.90
52209;DHT22;38507;53.132;6.394;2022-11-20T14:46:54;3.50;99.90
52209;DHT22;38507;53.132;6.394;2022-11-20T14:49:20;3.50;99.90
52209;DHT22;38507;53.132;6.394;2022-11-20T14:51:46;3.50;99.90
52209;DHT22;38507;53.132;6.394;2022-11-20T14:54:17;3.40;99.90
52209;DHT22;38507;53.132;6.394;2022-11-20T14:56:57;3.40;99.90
52209;DHT22;38507;53.132;6.394;2022-11-20T14:59:25;3.30;99.90
52209;DHT22;38507;53.132;6.394;2022-11-20T15:01:59;3.90;99.90
52209;DHT22;38507;53.132;6.394;2022-11-20T15:04:25;4.20;99.90
52209;DHT22;38507;53.132;6.394;2022-11-20T15:06:57;3.20;99.90
52209;DHT22;38507;53.132;6.394;2022-11-20T15:09:23;3.20;99.90
52209;DHT22;38507;53.132;6.394;2022-11-20T15:11:58;3.10;99.90
52209;DHT22;38507;53.132;6.394;2022-11-20T15:14:25;3.10;99.90
52209;DHT22;38507;53.132;6.394;2022-11-20T15:16:52;3.00;99.90
52209;DHT22;38507;53.132;6.394;2022-11-20T15:19:23;3.00;99.90
52209;DHT22;38507;53.132;6.394;2022-11-20T15:21:49;2.90;99.90
52209;DHT22;38507;53.132;6.394;2022-11-20T15:24:16;2.90;99.90
52209;DHT22;38507;53.132;6.394;2022-11-20T15:26:42;2.80;99.90
52209;DHT22;38507;53.132;6.394;2022-11-20T15:29:11;2.80;99.90
52209;DHT22;38507;53.132;6.394;2022-11-20T15:31:38;2.80;99.90
52209;DHT22;38507;53.132;6.394;2022-11-20T15:34:14;2.70;99.90
52209;DHT22;38507;53.132;6.394;2022-11-20T15:36:43;2.70;99.90
52209;DHT22;38507;53.132;6.394;2022-11-20T15:39:09;2.70;99.90
52209;DHT22;38507;53.132;6.394;2022-11-20T15:41:37;2.70;99.90
52209;DHT22;38507;53.132;6.394;2022-11-20T15:44:04;2.60;99.90
52209;DHT22;38507;53.132;6.394;2022-11-20T15:46:36;2.60;99.90
52209;DHT22;38507;53.132;6.394;2022-11-20T15:49:04;2.60;99.90
52209;DHT22;38507;53.132;6.394;2022-11-20T15:51:35;2.60;99.90
52209;DHT22;38507;53.132;6.394;2022-11-20T15:54:10;2.50;99.90
52209;DHT22;38507;53.132;6.394;2022-11-20T15:56:36;2.50;99.90
52209;DHT22;38507;53.132;6.394;2022-11-20T15:59:03;2.50;99.90
52209;DHT22;38507;53.132;6.394;2022-11-20T16:01:29;2.50;99.90
52209;DHT22;38507;53.132;6.394;2022-11-20T16:03:54;2.40;99.90
52209;DHT22;38507;53.132;6.394;2022-11-20T16:06:20;2.40;99.90
52209;DHT22;38507;53.132;6.394;2022-11-20T16:08:45;2.40;99.90
52209;DHT22;38507;53.132;6.394;2022-11-20T16:11:16;2.40;99.90
52209;DHT22;38507;53.132;6.394;2022-11-20T16:13:42;2.30;99.90
52209;DHT22;38507;53.132;6.394;2022-11-20T16:16:31;2.30;99.90
52209;DHT22;38507;53.132;6.394;2022-11-20T16:18:57;2.30;99.90
52209;DHT22;38507;53.132;6.394;2022-11-20T16:21:23;2.30;99.90
52209;DHT22;38507;53.132;6.394;2022-11-20T16:24:03;2.30;99.90
52209;DHT22;38507;53.132;6.394;2022-11-20T16:26:29;2.20;99.90
52209;DHT22;38507;53.132;6.394;2022-11-20T16:28:55;2.20;99.90
52209;DHT22;38507;53.132;6.394;2022-11-20T16:31:21;2.20;99.90
52209;DHT22;38507;53.132;6.394;2022-11-20T16:33:51;2.20;99.90
52209;DHT22;38507;53.132;6.394;2022-11-20T16:36:19;2.50;99.90
52209;DHT22;38507;53.132;6.394;2022-11-20T16:38:45;2.20;99.90
52209;DHT22;38507;53.132;6.394;2022-11-20T16:41:11;2.10;99.90
52209;DHT22;38507;53.132;6.394;2022-11-20T16:43:47;2.10;99.90
52209;DHT22;38507;53.132;6.394;2022-11-20T16:46:17;2.30;99.90
52209;DHT22;38507;53.132;6.394;2022-11-20T16:48:43;2.10;99.90
52209;DHT22;38507;53.132;6.394;2022-11-20T16:51:10;2.10;99.90
52209;DHT22;38507;53.132;6.394;2022-11-20T16:53:36;2.00;99.90
52209;DHT22;38507;53.132;6.394;2022-11-20T16:56:16;2.00;99.90
52209;DHT22;38507;53.132;6.394;2022-11-20T16:58:47;2.00;99.90
52209;DHT22;38507;53.132;6.394;2022-11-20T17:01:18;2.00;99.90
52209;DHT22;38507;53.132;6.394;2022-11-20T17:03:46;2.00;99.90
52209;DHT22;38507;53.132;6.394;2022-11-20T17:06:22;1.90;99.90
52209;DHT22;38507;53.132;6.394;2022-11-20T17:08:48;1.90;99.90
52209;DHT22;38507;53.132;6.394;2022-11-20T17:11:15;1.90;99.90
52209;DHT22;38507;53.132;6.394;2022-11-20T17:13:41;1.90;99.90
52209;DHT22;38507;53.132;6.394;2022-11-20T17:16:10;1.90;99.90
52209;DHT22;38507;53.132;6.394;2022-11-20T17:18:36;1.90;99.90
52209;DHT22;38507;53.132;6.394;2022-11-20T17:21:02;1.90;99.90
52209;DHT22;38507;53.132;6.394;2022-11-20T17:23:34;1.90;99.90
52209;DHT22;38507;53.132;6.394;2022-11-20T17:26:09;1.80;99.90
52209;DHT22;38507;53.132;6.394;2022-11-20T17:28:36;1.80;99.90
52209;DHT22;38507;53.132;6.394;2022-11-20T17:31:04;1.80;99.90
52209;DHT22;38507;53.132;6.394;2022-11-20T17:33:31;1.80;99.90
52209;DHT22;38507;53.132;6.394;2022-11-20T17:35:56;1.80;99.90